sensor_id;sensor_type;location;lat;lon;timestamp;P1;durP1;ratioP1;P2;durP2;ratioP2
71290;SDS011;59073;51.994;4.448;2023-04-03T00:01:23;1.35;;;1.34;;
71290;SDS011;59073;51.994;4.448;2023-04-03T00:03:49;1.33;;;1.32;;
71290;SDS011;59073;51.994;4.448;2023-04-03T00:06:16;1.38;;;1.36;;
71290;SDS011;59073;51.994;4.448;2023-04-03T00:08:42;1.31;;;1.30;;
71290;SDS011;59073;51.994;4.448;2023-04-03T00:11:07;1.38;;;1.36;;
71290;SDS011;59073;51.994;4.448;2023-04-03T00:13:34;1.22;;;1.21;;
71290;SDS011;59073;51.994;4.448;2023-04-03T00:16:00;1.25;;;1.24;;
71290;SDS011;59073;51.994;4.448;2023-04-03T00:18:28;1.28;;;1.27;;
71290;SDS011;59073;51.994;4.448;2023-04-03T00:20:54;1.36;;;1.35;;
71290;SDS011;59073;51.994;4.448;2023-04-03T00:23:20;1.44;;;1.43;;
71290;SDS011;59073;51.994;4.448;2023-04-03T00:25:46;1.42;;;1.41;;
71290;SDS011;59073;51.994;4.448;2023-04-03T00:28:11;1.45;;;1.45;;
71290;SDS011;59073;51.994;4.448;2023-04-03T00:30:37;1.31;;;1.31;;
71290;SDS011;59073;51.994;4.448;2023-04-03T00:33:03;1.23;;;1.23;;
71290;SDS011;59073;51.994;4.448;2023-04-03T00:35:28;1.26;;;1.26;;
71290;SDS011;59073;51.994;4.448;2023-04-03T00:37:54;1.37;;;1.37;;
71290;SDS011;59073;51.994;4.448;2023-04-03T00:40:21;1.37;;;1.37;;
71290;SDS011;59073;51.994;4.448;2023-04-03T00:42:51;1.40;;;1.39;;
71290;SDS011;59073;51.994;4.448;2023-04-03T00:45:32;1.26;;;1.26;;
71290;SDS011;59073;51.994;4.448;2023-04-03T00:47:59;1.36;;;1.35;;
71290;SDS011;59073;51.994;4.448;2023-04-03T00:50:28;1.48;;;1.46;;
71290;SDS011;59073;51.994;4.448;2023-04-03T00:52:55;1.32;;;1.30;;
71290;SDS011;59073;51.994;4.448;2023-04-03T00:55:22;1.27;;;1.26;;
71290;SDS011;59073;51.994;4.448;2023-04-03T00:57:48;1.32;;;1.32;;
71290;SDS011;59073;51.994;4.448;2023-04-03T01:00:15;1.39;;;1.39;;
71290;SDS011;59073;51.994;4.448;2023-04-03T01:02:43;1.35;;;1.35;;
71290;SDS011;59073;51.994;4.448;2023-04-03T01:05:09;1.43;;;1.42;;
71290;SDS011;59073;51.994;4.448;2023-04-03T01:07:36;1.39;;;1.38;;
71290;SDS011;59073;51.994;4.448;2023-04-03T01:10:04;1.42;;;1.41;;
71290;SDS011;59073;51.994;4.448;2023-04-03T01:12:34;1.54;;;1.53;;
71290;SDS011;59073;51.994;4.448;2023-04-03T01:17:36;1.38;;;1.36;;
71290;SDS011;59073;51.994;4.448;2023-04-03T01:25:45;1.34;;;1.34;;
71290;SDS011;59073;51.994;4.448;2023-04-03T01:28:15;1.47;;;1.46;;
71290;SDS011;59073;51.994;4.448;2023-04-03T01:30:48;1.28;;;1.27;;
71290;SDS011;59073;51.994;4.448;2023-04-03T01:33:21;1.52;;;1.51;;
71290;SDS011;59073;51.994;4.448;2023-04-03T01:35:47;1.37;;;1.35;;
71290;SDS011;59073;51.994;4.448;2023-04-03T01:38:12;1.51;;;1.49;;
71290;SDS011;59073;51.994;4.448;2023-04-03T01:40:37;1.55;;;1.54;;
71290;SDS011;59073;51.994;4.448;2023-04-03T01:43:03;1.35;;;1.34;;
71290;SDS011;59073;51.994;4.448;2023-04-03T01:45:28;1.46;;;1.45;;
71290;SDS011;59073;51.994;4.448;2023-04-03T01:47:53;1.43;;;1.42;;
71290;SDS011;59073;51.994;4.448;2023-04-03T01:50:19;1.39;;;1.38;;
71290;SDS011;59073;51.994;4.448;2023-04-03T01:52:44;1.40;;;1.39;;
71290;SDS011;59073;51.994;4.448;2023-04-03T01:55:10;1.59;;;1.59;;
71290;SDS011;59073;51.994;4.448;2023-04-03T01:57:35;1.48;;;1.48;;
71290;SDS011;59073;51.994;4.448;2023-04-03T02:00:01;1.30;;;1.30;;
71290;SDS011;59073;51.994;4.448;2023-04-03T02:02:26;1.52;;;1.51;;
71290;SDS011;59073;51.994;4.448;2023-04-03T02:04:53;1.46;;;1.45;;
71290;SDS011;59073;51.994;4.448;2023-04-03T02:07:19;1.41;;;1.40;;
71290;SDS011;59073;51.994;4.448;2023-04-03T02:09:45;1.64;;;1.62;;
71290;SDS011;59073;51.994;4.448;2023-04-03T02:12:10;1.33;;;1.32;;
71290;SDS011;59073;51.994;4.448;2023-04-03T02:14:36;1.37;;;1.35;;
71290;SDS011;59073;51.994;4.448;2023-04-03T02:17:01;1.64;;;1.62;;
71290;SDS011;59073;51.994;4.448;2023-04-03T02:19:30;1.43;;;1.41;;
71290;SDS011;59073;51.994;4.448;2023-04-03T02:21:56;1.48;;;1.47;;
71290;SDS011;59073;51.994;4.448;2023-04-03T02:24:21;1.74;;;1.73;;
71290;SDS011;59073;51.994;4.448;2023-04-03T02:26:47;1.60;;;1.59;;
71290;SDS011;59073;51.994;4.448;2023-04-03T02:29:12;1.53;;;1.51;;
71290;SDS011;59073;51.994;4.448;2023-04-03T02:31:37;1.60;;;1.58;;
71290;SDS011;59073;51.994;4.448;2023-04-03T02:34:03;1.61;;;1.59;;
71290;SDS011;59073;51.994;4.448;2023-04-03T02:36:28;1.42;;;1.42;;
71290;SDS011;59073;51.994;4.448;2023-04-03T02:38:53;1.53;;;1.53;;
71290;SDS011;59073;51.994;4.448;2023-04-03T02:41:19;1.49;;;1.48;;
71290;SDS011;59073;51.994;4.448;2023-04-03T02:43:46;1.31;;;1.30;;
71290;SDS011;59073;51.994;4.448;2023-04-03T02:46:11;1.59;;;1.58;;
71290;SDS011;59073;51.994;4.448;2023-04-03T02:48:39;1.46;;;1.46;;
71290;SDS011;59073;51.994;4.448;2023-04-03T02:51:04;1.44;;;1.44;;
71290;SDS011;59073;51.994;4.448;2023-04-03T02:53:30;1.59;;;1.58;;
71290;SDS011;59073;51.994;4.448;2023-04-03T02:55:55;1.48;;;1.48;;
71290;SDS011;59073;51.994;4.448;2023-04-03T02:58:20;1.70;;;1.70;;
71290;SDS011;59073;51.994;4.448;2023-04-03T03:00:46;1.62;;;1.62;;
71290;SDS011;59073;51.994;4.448;2023-04-03T03:03:11;1.50;;;1.49;;
71290;SDS011;59073;51.994;4.448;2023-04-03T03:05:38;1.48;;;1.48;;
71290;SDS011;59073;51.994;4.448;2023-04-03T03:08:04;1.64;;;1.63;;
71290;SDS011;59073;51.994;4.448;2023-04-03T03:10:29;1.84;;;1.84;;
71290;SDS011;59073;51.994;4.448;2023-04-03T03:12:55;2.04;;;2.04;;
71290;SDS011;59073;51.994;4.448;2023-04-03T03:15:20;2.24;;;2.23;;
71290;SDS011;59073;51.994;4.448;2023-04-03T03:17:46;1.96;;;1.96;;
71290;SDS011;59073;51.994;4.448;2023-04-03T03:20:12;2.26;;;2.26;;
71290;SDS011;59073;51.994;4.448;2023-04-03T03:22:40;1.71;;;1.70;;
71290;SDS011;59073;51.994;4.448;2023-04-03T03:25:06;1.75;;;1.75;;
71290;SDS011;59073;51.994;4.448;2023-04-03T03:27:31;1.55;;;1.55;;
71290;SDS011;59073;51.994;4.448;2023-04-03T03:29:57;1.77;;;1.77;;
71290;SDS011;59073;51.994;4.448;2023-04-03T03:32:22;1.82;;;1.82;;
71290;SDS011;59073;51.994;4.448;2023-04-03T03:34:48;1.89;;;1.89;;
71290;SDS011;59073;51.994;4.448;2023-04-03T03:37:13;2.07;;;2.07;;
71290;SDS011;59073;51.994;4.448;2023-04-03T03:39:39;2.05;;;2.05;;
71290;SDS011;59073;51.994;4.448;2023-04-03T03:42:04;2.14;;;2.13;;
71290;SDS011;59073;51.994;4.448;2023-04-03T03:44:30;2.24;;;2.24;;
71290;SDS011;59073;51.994;4.448;2023-04-03T03:46:55;2.35;;;2.34;;
71290;SDS011;59073;51.994;4.448;2023-04-03T03:49:21;2.58;;;2.57;;
71290;SDS011;59073;51.994;4.448;2023-04-03T03:51:46;2.87;;;2.85;;
71290;SDS011;59073;51.994;4.448;2023-04-03T03:54:12;3.09;;;3.07;;
71290;SDS011;59073;51.994;4.448;2023-04-03T03:56:38;2.80;;;2.80;;
71290;SDS011;59073;51.994;4.448;2023-04-03T03:59:05;3.18;;;3.17;;
71290;SDS011;59073;51.994;4.448;2023-04-03T04:01:30;3.02;;;3.02;;
71290;SDS011;59073;51.994;4.448;2023-04-03T04:03:56;3.15;;;3.14;;
71290;SDS011;59073;51.994;4.448;2023-04-03T04:06:21;3.23;;;3.21;;
71290;SDS011;59073;51.994;4.448;2023-04-03T04:08:47;2.90;;;2.86;;
71290;SDS011;59073;51.994;4.448;2023-04-03T04:11:12;3.22;;;3.18;;
71290;SDS011;59073;51.994;4.448;2023-04-03T04:13:38;3.17;;;3.13;;
71290;SDS011;59073;51.994;4.448;2023-04-03T04:16:04;3.13;;;3.09;;
71290;SDS011;59073;51.994;4.448;2023-04-03T04:18:30;2.74;;;2.71;;
71290;SDS011;59073;51.994;4.448;2023-04-03T04:20:55;2.63;;;2.61;;
71290;SDS011;59073;51.994;4.448;2023-04-03T04:23:21;2.65;;;2.64;;
71290;SDS011;59073;51.994;4.448;2023-04-03T04:25:47;3.06;;;3.05;;
71290;SDS011;59073;51.994;4.448;2023-04-03T04:28:13;2.62;;;2.61;;
71290;SDS011;59073;51.994;4.448;2023-04-03T04:30:39;2.46;;;2.45;;
71290;SDS011;59073;51.994;4.448;2023-04-03T04:33:05;2.39;;;2.39;;
71290;SDS011;59073;51.994;4.448;2023-04-03T04:35:32;2.40;;;2.40;;
71290;SDS011;59073;51.994;4.448;2023-04-03T04:37:57;2.29;;;2.29;;
71290;SDS011;59073;51.994;4.448;2023-04-03T04:40:23;2.32;;;2.32;;
71290;SDS011;59073;51.994;4.448;2023-04-03T04:42:48;1.98;;;1.97;;
71290;SDS011;59073;51.994;4.448;2023-04-03T04:45:14;2.10;;;2.09;;
71290;SDS011;59073;51.994;4.448;2023-04-03T04:47:40;2.24;;;2.23;;
71290;SDS011;59073;51.994;4.448;2023-04-03T04:50:06;2.45;;;2.45;;
71290;SDS011;59073;51.994;4.448;2023-04-03T04:52:32;2.28;;;2.26;;
71290;SDS011;59073;51.994;4.448;2023-04-03T04:54:58;2.31;;;2.28;;
71290;SDS011;59073;51.994;4.448;2023-04-03T04:57:23;2.50;;;2.48;;
71290;SDS011;59073;51.994;4.448;2023-04-03T04:59:49;2.49;;;2.48;;
71290;SDS011;59073;51.994;4.448;2023-04-03T05:02:14;2.69;;;2.69;;
71290;SDS011;59073;51.994;4.448;2023-04-03T05:04:40;2.54;;;2.54;;
71290;SDS011;59073;51.994;4.448;2023-04-03T05:07:06;2.63;;;2.63;;
71290;SDS011;59073;51.994;4.448;2023-04-03T05:09:31;2.66;;;2.66;;
71290;SDS011;59073;51.994;4.448;2023-04-03T05:11:56;2.63;;;2.61;;
71290;SDS011;59073;51.994;4.448;2023-04-03T05:14:22;2.83;;;2.79;;
71290;SDS011;59073;51.994;4.448;2023-04-03T05:16:48;3.23;;;3.18;;
71290;SDS011;59073;51.994;4.448;2023-04-03T05:19:13;3.34;;;3.31;;
71290;SDS011;59073;51.994;4.448;2023-04-03T05:21:39;2.81;;;2.80;;
71290;SDS011;59073;51.994;4.448;2023-04-03T05:24:05;3.34;;;3.33;;
71290;SDS011;59073;51.994;4.448;2023-04-03T05:26:34;2.94;;;2.93;;
71290;SDS011;59073;51.994;4.448;2023-04-03T05:28:59;2.93;;;2.92;;
71290;SDS011;59073;51.994;4.448;2023-04-03T05:31:25;2.91;;;2.90;;
71290;SDS011;59073;51.994;4.448;2023-04-03T05:33:50;2.80;;;2.80;;
71290;SDS011;59073;51.994;4.448;2023-04-03T05:36:16;2.79;;;2.79;;
71290;SDS011;59073;51.994;4.448;2023-04-03T05:38:41;2.68;;;2.67;;
71290;SDS011;59073;51.994;4.448;2023-04-03T05:41:06;2.68;;;2.67;;
71290;SDS011;59073;51.994;4.448;2023-04-03T05:43:32;2.40;;;2.37;;
71290;SDS011;59073;51.994;4.448;2023-04-03T05:45:59;2.63;;;2.60;;
71290;SDS011;59073;51.994;4.448;2023-04-03T05:48:25;2.34;;;2.32;;
71290;SDS011;59073;51.994;4.448;2023-04-03T05:50:50;2.50;;;2.47;;
71290;SDS011;59073;51.994;4.448;2023-04-03T05:53:18;2.48;;;2.44;;
71290;SDS011;59073;51.994;4.448;2023-04-03T05:55:49;2.42;;;2.38;;
71290;SDS011;59073;51.994;4.448;2023-04-03T05:58:15;2.46;;;2.41;;
71290;SDS011;59073;51.994;4.448;2023-04-03T06:00:40;2.21;;;2.18;;
71290;SDS011;59073;51.994;4.448;2023-04-03T06:03:05;1.99;;;1.98;;
71290;SDS011;59073;51.994;4.448;2023-04-03T06:05:31;2.22;;;2.22;;
71290;SDS011;59073;51.994;4.448;2023-04-03T06:07:56;2.26;;;2.25;;
71290;SDS011;59073;51.994;4.448;2023-04-03T06:10:22;2.35;;;2.35;;
71290;SDS011;59073;51.994;4.448;2023-04-03T06:12:48;2.08;;;2.08;;
71290;SDS011;59073;51.994;4.448;2023-04-03T06:15:13;1.93;;;1.93;;
71290;SDS011;59073;51.994;4.448;2023-04-03T06:17:40;1.99;;;1.99;;
71290;SDS011;59073;51.994;4.448;2023-04-03T06:20:06;2.30;;;2.29;;
71290;SDS011;59073;51.994;4.448;2023-04-03T06:22:32;2.15;;;2.14;;
71290;SDS011;59073;51.994;4.448;2023-04-03T06:24:58;2.35;;;2.33;;
71290;SDS011;59073;51.994;4.448;2023-04-03T06:27:23;2.01;;;2.00;;
71290;SDS011;59073;51.994;4.448;2023-04-03T06:29:49;2.13;;;2.11;;
71290;SDS011;59073;51.994;4.448;2023-04-03T06:32:15;2.18;;;2.16;;
71290;SDS011;59073;51.994;4.448;2023-04-03T06:34:41;2.29;;;2.29;;
71290;SDS011;59073;51.994;4.448;2023-04-03T06:37:10;2.04;;;2.03;;
71290;SDS011;59073;51.994;4.448;2023-04-03T06:39:40;2.06;;;2.06;;
71290;SDS011;59073;51.994;4.448;2023-04-03T06:42:07;1.98;;;1.98;;
71290;SDS011;59073;51.994;4.448;2023-04-03T06:44:32;1.97;;;1.97;;
71290;SDS011;59073;51.994;4.448;2023-04-03T06:46:59;1.78;;;1.78;;
71290;SDS011;59073;51.994;4.448;2023-04-03T06:49:25;2.04;;;2.04;;
71290;SDS011;59073;51.994;4.448;2023-04-03T06:51:51;2.24;;;2.24;;
71290;SDS011;59073;51.994;4.448;2023-04-03T06:54:17;1.89;;;1.89;;
71290;SDS011;59073;51.994;4.448;2023-04-03T06:56:43;2.15;;;2.13;;
71290;SDS011;59073;51.994;4.448;2023-04-03T06:59:09;1.82;;;1.79;;
71290;SDS011;59073;51.994;4.448;2023-04-03T07:01:35;1.82;;;1.79;;
71290;SDS011;59073;51.994;4.448;2023-04-03T07:04:00;1.74;;;1.72;;
71290;SDS011;59073;51.994;4.448;2023-04-03T07:06:26;2.11;;;2.09;;
71290;SDS011;59073;51.994;4.448;2023-04-03T07:08:51;1.89;;;1.87;;
71290;SDS011;59073;51.994;4.448;2023-04-03T07:11:17;2.01;;;1.99;;
71290;SDS011;59073;51.994;4.448;2023-04-03T07:13:43;1.58;;;1.57;;
71290;SDS011;59073;51.994;4.448;2023-04-03T07:16:09;1.86;;;1.85;;
71290;SDS011;59073;51.994;4.448;2023-04-03T07:18:35;2.17;;;2.17;;
71290;SDS011;59073;51.994;4.448;2023-04-03T07:21:01;1.84;;;1.84;;
71290;SDS011;59073;51.994;4.448;2023-04-03T07:23:28;1.99;;;1.98;;
71290;SDS011;59073;51.994;4.448;2023-04-03T07:25:53;2.02;;;1.98;;
71290;SDS011;59073;51.994;4.448;2023-04-03T07:28:19;1.53;;;1.50;;
71290;SDS011;59073;51.994;4.448;2023-04-03T07:30:47;1.83;;;1.79;;
71290;SDS011;59073;51.994;4.448;2023-04-03T07:33:21;1.82;;;1.77;;
71290;SDS011;59073;51.994;4.448;2023-04-03T07:35:47;2.10;;;2.05;;
71290;SDS011;59073;51.994;4.448;2023-04-03T07:38:14;2.02;;;1.97;;
71290;SDS011;59073;51.994;4.448;2023-04-03T07:40:40;1.83;;;1.81;;
71290;SDS011;59073;51.994;4.448;2023-04-03T07:43:13;2.21;;;2.18;;
71290;SDS011;59073;51.994;4.448;2023-04-03T07:45:39;1.95;;;1.93;;
71290;SDS011;59073;51.994;4.448;2023-04-03T07:48:05;2.01;;;1.97;;
71290;SDS011;59073;51.994;4.448;2023-04-03T07:50:31;2.00;;;1.94;;
71290;SDS011;59073;51.994;4.448;2023-04-03T07:52:57;2.07;;;2.00;;
71290;SDS011;59073;51.994;4.448;2023-04-03T07:55:23;1.96;;;1.91;;
71290;SDS011;59073;51.994;4.448;2023-04-03T07:57:49;1.64;;;1.62;;
71290;SDS011;59073;51.994;4.448;2023-04-03T08:00:15;1.66;;;1.63;;
71290;SDS011;59073;51.994;4.448;2023-04-03T08:02:42;1.91;;;1.87;;
71290;SDS011;59073;51.994;4.448;2023-04-03T08:05:09;1.96;;;1.91;;
71290;SDS011;59073;51.994;4.448;2023-04-03T08:07:36;1.98;;;1.94;;
71290;SDS011;59073;51.994;4.448;2023-04-03T08:10:04;1.71;;;1.67;;
71290;SDS011;59073;51.994;4.448;2023-04-03T08:12:30;1.88;;;1.85;;
71290;SDS011;59073;51.994;4.448;2023-04-03T08:14:57;1.66;;;1.64;;
71290;SDS011;59073;51.994;4.448;2023-04-03T08:17:22;1.74;;;1.72;;
71290;SDS011;59073;51.994;4.448;2023-04-03T08:19:48;1.73;;;1.72;;
71290;SDS011;59073;51.994;4.448;2023-04-03T08:22:13;1.93;;;1.91;;
71290;SDS011;59073;51.994;4.448;2023-04-03T08:24:38;1.99;;;1.95;;
71290;SDS011;59073;51.994;4.448;2023-04-03T08:27:04;2.20;;;2.13;;
71290;SDS011;59073;51.994;4.448;2023-04-03T08:29:30;2.07;;;1.97;;
71290;SDS011;59073;51.994;4.448;2023-04-03T08:31:58;1.59;;;1.54;;
71290;SDS011;59073;51.994;4.448;2023-04-03T08:34:24;1.58;;;1.52;;
71290;SDS011;59073;51.994;4.448;2023-04-03T08:36:49;1.74;;;1.68;;
71290;SDS011;59073;51.994;4.448;2023-04-03T08:39:14;1.85;;;1.75;;
71290;SDS011;59073;51.994;4.448;2023-04-03T08:41:43;1.92;;;1.80;;
71290;SDS011;59073;51.994;4.448;2023-04-03T08:49:51;1.77;;;1.69;;
71290;SDS011;59073;51.994;4.448;2023-04-03T08:52:44;1.76;;;1.69;;
71290;SDS011;59073;51.994;4.448;2023-04-03T08:57:48;1.51;;;1.48;;
71290;SDS011;59073;51.994;4.448;2023-04-03T09:00:24;1.30;;;1.27;;
71290;SDS011;59073;51.994;4.448;2023-04-03T09:02:54;1.45;;;1.41;;
71290;SDS011;59073;51.994;4.448;2023-04-03T09:10:52;1.37;;;1.30;;
71290;SDS011;59073;51.994;4.448;2023-04-03T09:13:34;1.64;;;1.57;;
71290;SDS011;59073;51.994;4.448;2023-04-03T09:24:57;1.15;;;1.13;;
71290;SDS011;59073;51.994;4.448;2023-04-03T09:27:30;1.06;;;1.04;;
71290;SDS011;59073;51.994;4.448;2023-04-03T09:29:56;1.17;;;1.13;;
71290;SDS011;59073;51.994;4.448;2023-04-03T09:32:27;0.95;;;0.92;;
71290;SDS011;59073;51.994;4.448;2023-04-03T09:38:02;1.03;;;1.00;;
71290;SDS011;59073;51.994;4.448;2023-04-03T09:40:44;0.93;;;0.90;;
71290;SDS011;59073;51.994;4.448;2023-04-03T09:43:23;0.92;;;0.89;;
71290;SDS011;59073;51.994;4.448;2023-04-03T09:45:51;0.79;;;0.78;;
71290;SDS011;59073;51.994;4.448;2023-04-03T09:48:19;0.88;;;0.85;;
71290;SDS011;59073;51.994;4.448;2023-04-03T09:56:01;0.94;;;0.90;;
71290;SDS011;59073;51.994;4.448;2023-04-03T09:58:36;0.79;;;0.75;;
71290;SDS011;59073;51.994;4.448;2023-04-03T10:01:06;0.77;;;0.73;;
71290;SDS011;59073;51.994;4.448;2023-04-03T10:04:09;0.95;;;0.91;;
71290;SDS011;59073;51.994;4.448;2023-04-03T10:06:38;1.01;;;0.95;;
71290;SDS011;59073;51.994;4.448;2023-04-03T10:09:29;0.87;;;0.82;;
71290;SDS011;59073;51.994;4.448;2023-04-03T10:12:08;0.83;;;0.79;;
71290;SDS011;59073;51.994;4.448;2023-04-03T10:14:38;0.82;;;0.78;;
71290;SDS011;59073;51.994;4.448;2023-04-03T10:19:32;0.97;;;0.91;;
71290;SDS011;59073;51.994;4.448;2023-04-03T10:27:35;0.98;;;0.93;;
71290;SDS011;59073;51.994;4.448;2023-04-03T10:30:29;1.13;;;1.06;;
71290;SDS011;59073;51.994;4.448;2023-04-03T10:33:06;0.96;;;0.90;;
71290;SDS011;59073;51.994;4.448;2023-04-03T10:36:11;0.93;;;0.88;;
71290;SDS011;59073;51.994;4.448;2023-04-03T10:47:20;0.75;;;0.71;;
71290;SDS011;59073;51.994;4.448;2023-04-03T10:52:43;0.72;;;0.69;;
71290;SDS011;59073;51.994;4.448;2023-04-03T10:57:50;0.83;;;0.80;;
71290;SDS011;59073;51.994;4.448;2023-04-03T11:00:23;0.77;;;0.74;;
71290;SDS011;59073;51.994;4.448;2023-04-03T11:05:51;0.70;;;0.67;;
71290;SDS011;59073;51.994;4.448;2023-04-03T11:08:27;0.73;;;0.68;;
71290;SDS011;59073;51.994;4.448;2023-04-03T11:10:59;0.78;;;0.74;;
71290;SDS011;59073;51.994;4.448;2023-04-03T11:13:33;0.89;;;0.84;;
71290;SDS011;59073;51.994;4.448;2023-04-03T11:16:05;0.57;;;0.54;;
71290;SDS011;59073;51.994;4.448;2023-04-03T11:21:17;0.79;;;0.75;;
71290;SDS011;59073;51.994;4.448;2023-04-03T11:23:48;0.82;;;0.78;;
71290;SDS011;59073;51.994;4.448;2023-04-03T11:26:24;0.78;;;0.74;;
71290;SDS011;59073;51.994;4.448;2023-04-03T11:29:06;0.72;;;0.68;;
71290;SDS011;59073;51.994;4.448;2023-04-03T11:34:37;0.66;;;0.63;;
71290;SDS011;59073;51.994;4.448;2023-04-03T11:37:50;0.83;;;0.80;;
71290;SDS011;59073;51.994;4.448;2023-04-03T11:40:04;0.65;;;0.63;;
71290;SDS011;59073;51.994;4.448;2023-04-03T11:42:37;0.52;;;0.50;;
71290;SDS011;59073;51.994;4.448;2023-04-03T11:58:16;0.46;;;0.43;;
71290;SDS011;59073;51.994;4.448;2023-04-03T12:05:53;0.54;;;0.51;;
71290;SDS011;59073;51.994;4.448;2023-04-03T12:08:28;0.57;;;0.55;;
71290;SDS011;59073;51.994;4.448;2023-04-03T12:13:41;0.43;;;0.41;;
71290;SDS011;59073;51.994;4.448;2023-04-03T12:16:29;0.43;;;0.41;;
71290;SDS011;59073;51.994;4.448;2023-04-03T12:18:57;0.41;;;0.39;;
71290;SDS011;59073;51.994;4.448;2023-04-03T12:44:00;0.61;;;0.60;;
71290;SDS011;59073;51.994;4.448;2023-04-03T12:46:47;0.54;;;0.52;;
71290;SDS011;59073;51.994;4.448;2023-04-03T12:49:22;0.65;;;0.63;;
71290;SDS011;59073;51.994;4.448;2023-04-03T12:51:51;0.59;;;0.57;;
71290;SDS011;59073;51.994;4.448;2023-04-03T12:54:29;0.62;;;0.60;;
71290;SDS011;59073;51.994;4.448;2023-04-03T12:57:20;0.68;;;0.65;;
71290;SDS011;59073;51.994;4.448;2023-04-03T12:59:49;0.63;;;0.60;;
71290;SDS011;59073;51.994;4.448;2023-04-03T13:02:28;0.62;;;0.60;;
71290;SDS011;59073;51.994;4.448;2023-04-03T13:04:57;0.75;;;0.73;;
71290;SDS011;59073;51.994;4.448;2023-04-03T13:07:32;0.52;;;0.50;;
71290;SDS011;59073;51.994;4.448;2023-04-03T13:12:33;0.83;;;0.80;;
71290;SDS011;59073;51.994;4.448;2023-04-03T13:15:02;0.72;;;0.70;;
71290;SDS011;59073;51.994;4.448;2023-04-03T13:17:41;0.80;;;0.78;;
71290;SDS011;59073;51.994;4.448;2023-04-03T13:20:15;0.76;;;0.74;;
71290;SDS011;59073;51.994;4.448;2023-04-03T13:25:30;0.89;;;0.88;;
71290;SDS011;59073;51.994;4.448;2023-04-03T13:27:59;0.91;;;0.90;;
71290;SDS011;59073;51.994;4.448;2023-04-03T13:30:29;0.92;;;0.91;;
71290;SDS011;59073;51.994;4.448;2023-04-03T13:32:58;0.81;;;0.80;;
71290;SDS011;59073;51.994;4.448;2023-04-03T13:38:06;1.10;;;1.07;;
71290;SDS011;59073;51.994;4.448;2023-04-03T13:40:47;1.00;;;0.98;;
71290;SDS011;59073;51.994;4.448;2023-04-03T13:43:25;0.91;;;0.88;;
71290;SDS011;59073;51.994;4.448;2023-04-03T13:46:00;0.96;;;0.94;;
71290;SDS011;59073;51.994;4.448;2023-04-03T13:48:40;1.14;;;1.11;;
71290;SDS011;59073;51.994;4.448;2023-04-03T13:56:25;0.97;;;0.94;;
71290;SDS011;59073;51.994;4.448;2023-04-03T14:04:19;1.00;;;0.97;;
71290;SDS011;59073;51.994;4.448;2023-04-03T14:06:47;0.92;;;0.90;;
71290;SDS011;59073;51.994;4.448;2023-04-03T14:09:13;0.84;;;0.81;;
71290;SDS011;59073;51.994;4.448;2023-04-03T14:11:40;0.98;;;0.95;;
71290;SDS011;59073;51.994;4.448;2023-04-03T14:14:15;0.94;;;0.90;;
71290;SDS011;59073;51.994;4.448;2023-04-03T14:16:56;1.11;;;1.08;;
71290;SDS011;59073;51.994;4.448;2023-04-03T14:19:32;0.99;;;0.96;;
71290;SDS011;59073;51.994;4.448;2023-04-03T14:22:00;1.04;;;1.02;;
71290;SDS011;59073;51.994;4.448;2023-04-03T14:24:40;0.97;;;0.95;;
71290;SDS011;59073;51.994;4.448;2023-04-03T14:27:11;1.00;;;0.99;;
71290;SDS011;59073;51.994;4.448;2023-04-03T14:29:42;1.08;;;1.06;;
71290;SDS011;59073;51.994;4.448;2023-04-03T14:32:10;0.93;;;0.91;;
71290;SDS011;59073;51.994;4.448;2023-04-03T14:34:36;1.04;;;1.01;;
71290;SDS011;59073;51.994;4.448;2023-04-03T14:37:03;1.10;;;1.07;;
71290;SDS011;59073;51.994;4.448;2023-04-03T14:39:30;0.87;;;0.84;;
71290;SDS011;59073;51.994;4.448;2023-04-03T14:41:55;0.94;;;0.91;;
71290;SDS011;59073;51.994;4.448;2023-04-03T14:44:20;0.69;;;0.67;;
71290;SDS011;59073;51.994;4.448;2023-04-03T14:46:46;1.02;;;1.00;;
71290;SDS011;59073;51.994;4.448;2023-04-03T14:49:14;0.95;;;0.93;;
71290;SDS011;59073;51.994;4.448;2023-04-03T14:51:42;0.95;;;0.93;;
71290;SDS011;59073;51.994;4.448;2023-04-03T14:54:16;1.09;;;1.07;;
71290;SDS011;59073;51.994;4.448;2023-04-03T14:56:44;0.84;;;0.82;;
71290;SDS011;59073;51.994;4.448;2023-04-03T14:59:11;1.02;;;1.00;;
71290;SDS011;59073;51.994;4.448;2023-04-03T15:01:38;0.90;;;0.88;;
71290;SDS011;59073;51.994;4.448;2023-04-03T15:04:16;0.98;;;0.96;;
71290;SDS011;59073;51.994;4.448;2023-04-03T15:06:44;1.19;;;1.16;;
71290;SDS011;59073;51.994;4.448;2023-04-03T15:09:14;1.01;;;0.97;;
71290;SDS011;59073;51.994;4.448;2023-04-03T15:11:44;0.86;;;0.83;;
71290;SDS011;59073;51.994;4.448;2023-04-03T15:14:09;0.93;;;0.90;;
71290;SDS011;59073;51.994;4.448;2023-04-03T15:16:35;0.98;;;0.95;;
71290;SDS011;59073;51.994;4.448;2023-04-03T15:19:01;1.17;;;1.14;;
71290;SDS011;59073;51.994;4.448;2023-04-03T15:21:26;1.08;;;1.05;;
71290;SDS011;59073;51.994;4.448;2023-04-03T15:23:51;1.03;;;1.00;;
71290;SDS011;59073;51.994;4.448;2023-04-03T15:26:17;1.10;;;1.08;;
71290;SDS011;59073;51.994;4.448;2023-04-03T15:28:42;0.99;;;0.97;;
71290;SDS011;59073;51.994;4.448;2023-04-03T15:31:09;0.95;;;0.93;;
71290;SDS011;59073;51.994;4.448;2023-04-03T15:33:35;1.24;;;1.21;;
71290;SDS011;59073;51.994;4.448;2023-04-03T15:36:02;1.13;;;1.11;;
71290;SDS011;59073;51.994;4.448;2023-04-03T15:38:28;0.93;;;0.92;;
71290;SDS011;59073;51.994;4.448;2023-04-03T15:40:53;1.11;;;1.10;;
71290;SDS011;59073;51.994;4.448;2023-04-03T15:43:20;1.17;;;1.15;;
71290;SDS011;59073;51.994;4.448;2023-04-03T15:45:47;1.28;;;1.26;;
71290;SDS011;59073;51.994;4.448;2023-04-03T15:48:13;1.24;;;1.22;;
71290;SDS011;59073;51.994;4.448;2023-04-03T15:50:40;1.19;;;1.17;;
71290;SDS011;59073;51.994;4.448;2023-04-03T15:53:06;1.16;;;1.15;;
71290;SDS011;59073;51.994;4.448;2023-04-03T15:55:33;1.06;;;1.05;;
71290;SDS011;59073;51.994;4.448;2023-04-03T15:57:59;1.03;;;1.02;;
71290;SDS011;59073;51.994;4.448;2023-04-03T16:00:26;1.12;;;1.11;;
71290;SDS011;59073;51.994;4.448;2023-04-03T16:02:54;1.24;;;1.23;;
71290;SDS011;59073;51.994;4.448;2023-04-03T16:05:26;1.11;;;1.10;;
71290;SDS011;59073;51.994;4.448;2023-04-03T16:07:52;1.12;;;1.11;;
71290;SDS011;59073;51.994;4.448;2023-04-03T16:10:20;1.05;;;1.04;;
71290;SDS011;59073;51.994;4.448;2023-04-03T16:12:46;1.03;;;1.02;;
71290;SDS011;59073;51.994;4.448;2023-04-03T16:15:12;1.07;;;1.06;;
71290;SDS011;59073;51.994;4.448;2023-04-03T16:17:37;1.02;;;1.00;;
71290;SDS011;59073;51.994;4.448;2023-04-03T16:20:06;1.44;;;1.41;;
71290;SDS011;59073;51.994;4.448;2023-04-03T16:22:33;1.09;;;1.06;;
71290;SDS011;59073;51.994;4.448;2023-04-03T16:24:59;1.13;;;1.10;;
71290;SDS011;59073;51.994;4.448;2023-04-03T16:27:25;1.14;;;1.11;;
71290;SDS011;59073;51.994;4.448;2023-04-03T16:29:55;1.13;;;1.10;;
71290;SDS011;59073;51.994;4.448;2023-04-03T16:32:25;1.30;;;1.26;;
71290;SDS011;59073;51.994;4.448;2023-04-03T16:34:54;1.17;;;1.15;;
71290;SDS011;59073;51.994;4.448;2023-04-03T16:37:20;1.23;;;1.21;;
71290;SDS011;59073;51.994;4.448;2023-04-03T16:39:46;1.08;;;1.06;;
71290;SDS011;59073;51.994;4.448;2023-04-03T16:42:11;1.22;;;1.21;;
71290;SDS011;59073;51.994;4.448;2023-04-03T16:44:37;0.97;;;0.96;;
71290;SDS011;59073;51.994;4.448;2023-04-03T16:47:04;1.14;;;1.12;;
71290;SDS011;59073;51.994;4.448;2023-04-03T16:49:30;1.20;;;1.18;;
71290;SDS011;59073;51.994;4.448;2023-04-03T16:51:59;1.16;;;1.13;;
71290;SDS011;59073;51.994;4.448;2023-04-03T16:54:25;1.29;;;1.26;;
71290;SDS011;59073;51.994;4.448;2023-04-03T16:56:52;1.50;;;1.46;;
71290;SDS011;59073;51.994;4.448;2023-04-03T16:59:18;1.31;;;1.28;;
71290;SDS011;59073;51.994;4.448;2023-04-03T17:01:43;1.25;;;1.21;;
71290;SDS011;59073;51.994;4.448;2023-04-03T17:04:09;1.37;;;1.33;;
71290;SDS011;59073;51.994;4.448;2023-04-03T17:06:34;1.28;;;1.24;;